createdAt,value
2023-03-26T20:34:40.223Z,94097.38
2023-03-26T20:37:10.792Z,94106.75
2023-03-26T20:39:42.053Z,94096.34
2023-03-26T20:42:19.076Z,94109.84
2023-03-26T20:44:49.250Z,94106.06
2023-03-26T20:47:21.208Z,94109.88
2023-03-26T20:49:54.110Z,94098.19
2023-03-26T20:52:26.063Z,94098.41
2023-03-26T20:54:59.087Z,94100.53
2023-03-26T20:57:30.362Z,94103.13
2023-03-26T21:00:01.323Z,94093.72
2023-03-26T21:02:34.082Z,94100.03
2023-03-26T21:05:14.973Z,94099.94
2023-03-26T21:07:48.255Z,94097.91
2023-03-26T21:10:20.237Z,94105.75
2023-03-26T21:12:59.637Z,94096.09
2023-03-26T21:15:32.849Z,94094.81
2023-03-26T21:18:08.438Z,94099.00
2023-03-26T21:20:48.184Z,94097.97
2023-03-26T21:23:33.491Z,94102.09
2023-03-26T21:26:18.426Z,94094.81
2023-03-26T21:28:52.436Z,94104.22
2023-03-26T21:31:25.130Z,94105.94
2023-03-26T21:33:58.318Z,94107.88
2023-03-26T21:36:33.548Z,94105.84
2023-03-26T21:39:06.621Z,94108.69
2023-03-26T21:41:47.876Z,94112.88
2023-03-26T21:44:21.686Z,94106.28
2023-03-26T21:46:55.141Z,94103.38
2023-03-26T21:49:26.050Z,94099.97
2023-03-26T21:52:00.218Z,94098.16
2023-03-26T21:54:32.717Z,94105.50
2023-03-26T21:57:34.098Z,94099.72
2023-03-26T22:00:16.572Z,94109.38
2023-03-26T22:03:01.779Z,94103.59
2023-03-26T22:05:45.317Z,94106.13
2023-03-26T22:08:30.072Z,94110.53
2023-03-26T22:11:01.157Z,94103.50
2023-03-26T22:13:35.634Z,94105.53
2023-03-26T22:16:07.815Z,94108.97
2023-03-26T22:18:43.824Z,94109.75
2023-03-26T22:21:21.311Z,94109.88
2023-03-26T22:23:58.263Z,94112.69
2023-03-26T22:26:30.316Z,94111.78
2023-03-26T22:29:02.437Z,94116.81
2023-03-26T22:31:34.963Z,94111.69
2023-03-26T22:34:07.861Z,94110.19
2023-03-26T22:36:39.847Z,94108.22
2023-03-26T22:39:14.147Z,94104.16
2023-03-26T22:41:44.581Z,94104.03
2023-03-26T22:44:20.209Z,94110.50
2023-03-26T22:46:52.894Z,94098.94
2023-03-26T22:49:28.234Z,94104.03
2023-03-26T22:52:02.094Z,94095.34
2023-03-26T22:54:36.744Z,94098.16
2023-03-26T22:57:07.482Z,94093.97
2023-03-26T22:59:39.820Z,94092.88
2023-03-26T23:02:12.569Z,94089.47
2023-03-26T23:04:42.875Z,94085.97
2023-03-26T23:07:14.735Z,94090.50
2023-03-26T23:09:50.635Z,94089.91
2023-03-26T23:12:24.716Z,94082.31
2023-03-26T23:14:55.972Z,94086.19
2023-03-26T23:17:26.054Z,94081.09
2023-03-26T23:19:57.752Z,94077.91
2023-03-26T23:22:27.777Z,94083.94
2023-03-26T23:25:02.170Z,94084.38
2023-03-26T23:27:34.671Z,94081.88
2023-03-26T23:30:05.038Z,94084.16
2023-03-26T23:32:38.085Z,94081.53
2023-03-26T23:35:10.414Z,94074.16
2023-03-26T23:37:43.367Z,94072.81
2023-03-26T23:40:19.218Z,94067.03
2023-03-26T23:42:51.819Z,94076.09
2023-03-26T23:45:22.381Z,94075.53
2023-03-26T23:47:52.447Z,94067.38
2023-03-26T23:50:25.712Z,94075.41
2023-03-26T23:52:57.311Z,94073.03
2023-03-26T23:55:30.480Z,94072.81
2023-03-26T23:58:00.637Z,94077.44
